createdAt,value
2023-04-28T00:00:03.260Z,7.04
2023-04-28T00:00:14.974Z,7.05
2023-04-28T00:00:26.652Z,7.05
2023-04-28T00:00:38.347Z,7.05
2023-04-28T00:00:49.152Z,7.05
2023-04-28T00:01:00.885Z,7.05
2023-04-28T00:01:14.694Z,7.07
2023-04-28T00:01:26.354Z,7.07
2023-04-28T00:01:39.555Z,7.05
2023-04-28T00:01:51.955Z,7.05
2023-04-28T00:02:05.680Z,7.07
2023-04-28T00:02:17.459Z,7.05
2023-04-28T00:02:28.346Z,7.07
2023-04-28T00:02:40.233Z,7.07
2023-04-28T00:02:52.089Z,7.07
2023-04-28T00:03:03.152Z,7.05
2023-04-28T00:03:15.985Z,7.07
2023-04-28T00:03:28.448Z,7.07
2023-04-28T00:03:41.091Z,7.05
2023-04-28T00:03:52.074Z,7.05
2023-04-28T00:04:04.761Z,7.07
2023-04-28T00:04:16.177Z,7.08
2023-04-28T00:04:27.736Z,7.07
2023-04-28T00:04:41.316Z,7.07
2023-04-28T00:04:54.657Z,7.07
2023-04-28T00:05:07.032Z,7.08
2023-04-28T00:05:19.603Z,7.07
2023-04-28T00:05:31.860Z,7.07
2023-04-28T00:05:42.556Z,7.05
2023-04-28T00:05:55.622Z,7.07
2023-04-28T00:06:07.405Z,7.07
2023-04-28T00:06:18.127Z,7.08
2023-04-28T00:06:29.869Z,7.05
2023-04-28T00:06:41.639Z,7.07
2023-04-28T00:06:53.812Z,7.07
2023-04-28T00:07:04.679Z,7.05
2023-04-28T00:07:15.457Z,7.07
2023-04-28T00:07:27.901Z,7.07
2023-04-28T00:07:40.983Z,7.07
2023-04-28T00:07:54.776Z,7.08
2023-04-28T00:08:05.492Z,7.07
2023-04-28T00:08:18.302Z,7.07
2023-04-28T00:08:32.504Z,7.05
2023-04-28T00:08:45.200Z,7.05
2023-04-28T00:08:55.891Z,7.05
2023-04-28T00:09:06.663Z,7.04
2023-04-28T00:09:17.348Z,7.05
2023-04-28T00:09:29.755Z,7.05
2023-04-28T00:09:40.512Z,7.05
2023-04-28T00:09:51.282Z,7.07
2023-04-28T00:10:02.058Z,7.05
2023-04-28T00:10:14.048Z,7.05
2023-04-28T00:10:24.923Z,7.05
2023-04-28T00:10:35.602Z,7.05
2023-04-28T00:10:46.306Z,7.07
2023-04-28T00:10:58.744Z,7.08
2023-04-28T00:11:09.472Z,7.07
2023-04-28T00:11:20.218Z,7.07
2023-04-28T00:11:31.001Z,7.08
2023-04-28T00:11:42.932Z,7.08
2023-04-28T00:11:54.715Z,7.07
2023-04-28T00:12:05.401Z,7.08
2023-04-28T00:12:16.137Z,7.08
2023-04-28T00:12:28.549Z,7.07
2023-04-28T00:12:40.992Z,7.07
2023-04-28T00:12:52.922Z,7.07
2023-04-28T00:13:03.652Z,7.08
2023-04-28T00:13:14.358Z,7.07
2023-04-28T00:13:25.113Z,7.07
2023-04-28T00:13:35.847Z,7.07
2023-04-28T00:13:46.701Z,7.08
2023-04-28T00:13:57.415Z,7.07
2023-04-28T00:14:08.190Z,7.07
2023-04-28T00:14:19.101Z,7.07
2023-04-28T00:14:30.823Z,7.07
2023-04-28T00:14:41.596Z,7.07
2023-04-28T00:14:52.294Z,7.07
2023-04-28T00:15:03.048Z,7.08
2023-04-28T00:15:13.768Z,7.07
2023-04-28T00:15:25.978Z,7.08
2023-04-28T00:15:38.392Z,7.07
2023-04-28T00:15:49.148Z,7.07
2023-04-28T00:15:59.877Z,7.08
2023-04-28T00:16:10.661Z,7.07
2023-04-28T00:16:23.361Z,7.07
2023-04-28T00:16:35.052Z,7.07
2023-04-28T00:16:45.969Z,7.07
2023-04-28T00:16:57.152Z,7.07
2023-04-28T00:17:08.957Z,7.08
2023-04-28T00:17:20.700Z,7.07
2023-04-28T00:17:31.467Z,7.08
2023-04-28T00:17:42.322Z,7.08
2023-04-28T00:17:55.095Z,7.08
2023-04-28T00:18:06.949Z,7.08
2023-04-28T00:18:18.657Z,7.07
2023-04-28T00:18:30.492Z,7.08
2023-04-28T00:18:42.388Z,7.08
2023-04-28T00:18:54.798Z,7.05
2023-04-28T00:19:05.497Z,7.08
2023-04-28T00:19:18.028Z,7.07
2023-04-28T00:19:28.701Z,7.08
2023-04-28T00:19:40.404Z,7.08
2023-04-28T00:19:51.144Z,7.08
2023-04-28T00:20:02.017Z,7.07
2023-04-28T00:20:12.725Z,7.07
2023-04-28T00:20:23.531Z,7.08
2023-04-28T00:20:35.895Z,7.08
2023-04-28T00:20:47.619Z,7.08
2023-04-28T00:20:58.295Z,7.07
2023-04-28T00:21:10.713Z,7.07
2023-04-28T00:21:21.668Z,7.05
2023-04-28T00:21:34.112Z,7.08
2023-04-28T00:21:45.777Z,7.07
2023-04-28T00:21:56.495Z,7.08
2023-04-28T00:22:07.231Z,7.09
2023-04-28T00:22:19.431Z,7.08
2023-04-28T00:22:30.186Z,7.07
2023-04-28T00:22:40.898Z,7.09
2023-04-28T00:22:53.304Z,7.09
2023-04-28T00:23:04.070Z,7.08
2023-04-28T00:23:15.787Z,7.08
2023-04-28T00:23:28.230Z,7.08
2023-04-28T00:23:39.979Z,7.09
2023-04-28T00:23:51.676Z,7.09
2023-04-28T00:24:02.373Z,7.09
2023-04-28T00:24:13.280Z,7.09
2023-04-28T00:24:24.033Z,7.11
2023-04-28T00:24:34.760Z,7.09
2023-04-28T00:24:45.525Z,7.09
2023-04-28T00:24:56.247Z,7.08
2023-04-28T00:25:06.961Z,7.08
2023-04-28T00:25:18.712Z,7.07
2023-04-28T00:25:29.386Z,7.08
2023-04-28T00:25:40.116Z,7.09
2023-04-28T00:25:50.796Z,7.08
2023-04-28T00:26:01.518Z,7.08
2023-04-28T00:26:13.993Z,7.09
2023-04-28T00:26:24.792Z,7.09
2023-04-28T00:26:37.226Z,7.09
2023-04-28T00:26:48.914Z,7.08
2023-04-28T00:26:59.694Z,7.09
2023-04-28T00:27:10.609Z,7.08
2023-04-28T00:27:22.229Z,7.08
2023-04-28T00:27:33.947Z,7.08
2023-04-28T00:27:44.805Z,7.08
2023-04-28T00:27:56.492Z,7.09
2023-04-28T00:28:07.305Z,7.08
2023-04-28T00:28:30.450Z,7.08
2023-04-28T00:28:35.723Z,7.07
2023-04-28T00:28:48.212Z,7.08
2023-04-28T00:29:00.630Z,7.08
2023-04-28T00:29:11.365Z,7.08
2023-04-28T00:29:23.095Z,7.07
2023-04-28T00:29:34.850Z,7.08
2023-04-28T00:29:47.273Z,7.08
2023-04-28T00:29:58.981Z,7.07
2023-04-28T00:30:09.786Z,7.07
2023-04-28T00:30:21.546Z,7.07
2023-04-28T00:30:34.738Z,7.07
2023-04-28T00:30:45.497Z,7.08
2023-04-28T00:30:56.245Z,7.07
2023-04-28T00:31:08.636Z,7.07
2023-04-28T00:31:21.021Z,7.05
2023-04-28T00:31:33.256Z,7.07
2023-04-28T00:31:44.940Z,7.07
2023-04-28T00:31:57.231Z,7.05
2023-04-28T00:32:08.018Z,7.07
2023-04-28T00:32:18.844Z,7.05
2023-04-28T00:32:31.286Z,7.05
2023-04-28T00:32:41.998Z,7.05
2023-04-28T00:32:55.265Z,7.04
2023-04-28T00:33:07.012Z,7.05
2023-04-28T00:33:19.203Z,7.04
2023-04-28T00:33:31.542Z,7.05
2023-04-28T00:33:43.213Z,7.05
2023-04-28T00:33:53.991Z,7.05
2023-04-28T00:34:04.739Z,7.05
2023-04-28T00:34:16.690Z,7.04
2023-04-28T00:34:27.633Z,7.05
2023-04-28T00:34:39.824Z,7.05
2023-04-28T00:34:52.385Z,7.05
2023-04-28T00:35:04.829Z,7.05
2023-04-28T00:35:17.278Z,7.05
2023-04-28T00:35:29.758Z,7.04
2023-04-28T00:35:41.567Z,7.05
2023-04-28T00:35:53.244Z,7.04
2023-04-28T00:36:03.928Z,7.05
2023-04-28T00:36:16.375Z,7.05
2023-04-28T00:36:28.185Z,7.05
2023-04-28T00:36:41.387Z,7.05
2023-04-28T00:36:53.943Z,7.04
2023-04-28T00:37:04.647Z,7.05
2023-04-28T00:37:15.346Z,7.04
2023-04-28T00:37:27.059Z,7.04
2023-04-28T00:37:37.827Z,7.04
2023-04-28T00:37:49.971Z,7.04
2023-04-28T00:38:00.701Z,7.01
2023-04-28T00:38:13.922Z,7.05
2023-04-28T00:38:25.885Z,7.04
2023-04-28T00:38:37.601Z,7.04
2023-04-28T00:38:49.304Z,7.04
2023-04-28T00:39:01.791Z,7.04
2023-04-28T00:39:14.450Z,7.01
2023-04-28T00:39:25.361Z,7.01
2023-04-28T00:39:37.049Z,7.04
2023-04-28T00:39:47.743Z,7.01
2023-04-28T00:39:58.570Z,7.04
2023-04-28T00:40:10.985Z,7.01
2023-04-28T00:40:22.678Z,7.01
2023-04-28T00:40:35.092Z,7.01
2023-04-28T00:40:45.877Z,7.04
2023-04-28T00:40:59.079Z,7.01
2023-04-28T00:41:10.762Z,7.01
2023-04-28T00:41:22.528Z,7.00
2023-04-28T00:41:33.249Z,6.99
2023-04-28T00:41:45.861Z,7.00
2023-04-28T00:41:58.302Z,7.00
2023-04-28T00:42:10.693Z,7.00
2023-04-28T00:42:22.350Z,6.99
2023-04-28T00:42:34.057Z,6.99
2023-04-28T00:42:45.753Z,6.97
2023-04-28T00:42:56.446Z,6.99
2023-04-28T00:43:08.868Z,6.97
2023-04-28T00:43:19.602Z,6.97
2023-04-28T00:43:31.838Z,6.97
2023-04-28T00:43:44.561Z,6.97
2023-04-28T00:43:56.284Z,6.97
2023-04-28T00:44:08.693Z,6.96
2023-04-28T00:44:19.433Z,6.96
2023-04-28T00:44:33.120Z,6.94
2023-04-28T00:44:45.610Z,6.96
2023-04-28T00:44:56.322Z,6.96
2023-04-28T00:45:07.074Z,6.94
2023-04-28T00:45:17.810Z,6.94
2023-04-28T00:45:28.575Z,6.94
2023-04-28T00:45:39.343Z,6.93
2023-04-28T00:45:50.224Z,6.93
2023-04-28T00:46:02.027Z,6.93
2023-04-28T00:46:12.749Z,6.93
2023-04-28T00:46:24.554Z,6.93
2023-04-28T00:46:36.267Z,6.93
2023-04-28T00:46:47.063Z,6.91
2023-04-28T00:46:59.494Z,6.91
2023-04-28T00:47:10.314Z,6.91
2023-04-28T00:47:22.101Z,6.90
2023-04-28T00:47:34.523Z,6.90
2023-04-28T00:47:47.016Z,6.90
2023-04-28T00:47:57.771Z,6.89
2023-04-28T00:48:08.597Z,6.89
2023-04-28T00:48:19.374Z,6.87
2023-04-28T00:48:30.122Z,6.87
2023-04-28T00:48:40.874Z,6.86
2023-04-28T00:48:53.379Z,6.87
2023-04-28T00:49:04.194Z,6.83
2023-04-28T00:49:16.661Z,6.87
2023-04-28T00:49:28.354Z,6.83
2023-04-28T00:49:40.758Z,6.83
2023-04-28T00:49:53.177Z,6.82
2023-04-28T00:50:03.929Z,6.82
2023-04-28T00:50:14.617Z,6.81
2023-04-28T00:50:26.411Z,6.81
2023-04-28T00:50:38.803Z,6.81
2023-04-28T00:50:51.562Z,6.79
2023-04-28T00:51:02.288Z,6.79
2023-04-28T00:51:14.506Z,6.79
2023-04-28T00:51:27.506Z,6.78
2023-04-28T00:51:38.203Z,6.75
2023-04-28T00:51:48.909Z,6.75
2023-04-28T00:52:02.103Z,6.76
2023-04-28T00:52:12.816Z,6.76
2023-04-28T00:52:23.568Z,6.75
2023-04-28T00:52:36.196Z,6.73
2023-04-28T00:52:47.022Z,6.73
2023-04-28T00:52:58.680Z,6.72
2023-04-28T00:53:10.876Z,6.72
2023-04-28T00:53:21.608Z,6.71
2023-04-28T00:53:33.297Z,6.71
2023-04-28T00:53:43.995Z,6.72
2023-04-28T00:53:56.845Z,6.69
2023-04-28T00:54:07.689Z,6.69
2023-04-28T00:54:18.612Z,6.68
2023-04-28T00:54:29.522Z,6.68
2023-04-28T00:54:41.245Z,6.65
2023-04-28T00:54:53.747Z,6.65
2023-04-28T00:55:06.165Z,6.68
2023-04-28T00:55:18.628Z,6.64
2023-04-28T00:55:29.318Z,6.64
2023-04-28T00:55:41.034Z,6.64
2023-04-28T00:55:52.709Z,6.64
2023-04-28T00:56:04.886Z,6.63
2023-04-28T00:56:17.365Z,6.63
2023-04-28T00:56:29.036Z,6.63
2023-04-28T00:56:41.948Z,6.64
2023-04-28T00:56:52.655Z,6.61
2023-04-28T00:57:05.224Z,6.61
2023-04-28T00:57:15.922Z,6.61
2023-04-28T00:57:26.614Z,6.61
2023-04-28T00:57:38.350Z,6.63
2023-04-28T00:57:51.523Z,6.60
2023-04-28T00:58:03.929Z,6.61
2023-04-28T00:58:14.669Z,6.61
2023-04-28T00:58:25.407Z,6.60
2023-04-28T00:58:37.855Z,6.61
2023-04-28T00:58:49.581Z,6.61
2023-04-28T00:59:00.275Z,6.61
2023-04-28T00:59:10.987Z,6.60
2023-04-28T00:59:23.385Z,6.61
2023-04-28T00:59:35.557Z,6.61
2023-04-28T00:59:47.251Z,6.60
2023-04-28T00:59:59.756Z,6.60
2023-04-28T01:00:10.523Z,6.60
2023-04-28T01:00:22.944Z,6.61
2023-04-28T01:00:33.635Z,6.58
2023-04-28T01:00:44.451Z,6.60
2023-04-28T01:00:55.145Z,6.60
2023-04-28T01:01:06.841Z,6.58
2023-04-28T01:01:19.401Z,6.60
2023-04-28T01:01:30.159Z,6.60
2023-04-28T01:01:41.025Z,6.61
2023-04-28T01:01:52.861Z,6.60
2023-04-28T01:02:05.244Z,6.60
2023-04-28T01:02:16.219Z,6.60
2023-04-28T01:02:28.510Z,6.60
2023-04-28T01:02:41.191Z,6.61
2023-04-28T01:02:53.230Z,6.60
2023-04-28T01:03:05.328Z,6.58
2023-04-28T01:03:17.965Z,6.61
2023-04-28T01:03:28.785Z,6.60
2023-04-28T01:03:39.860Z,6.60
2023-04-28T01:03:50.828Z,6.60
2023-04-28T01:04:03.350Z,6.61
2023-04-28T01:04:16.047Z,6.61
2023-04-28T01:04:28.721Z,6.61
2023-04-28T01:04:39.728Z,6.63
2023-04-28T01:04:52.441Z,6.63
2023-04-28T01:05:03.220Z,6.61
2023-04-28T01:05:16.399Z,6.63
2023-04-28T01:05:28.324Z,6.63
2023-04-28T01:05:40.042Z,6.63
2023-04-28T01:05:52.410Z,6.63
2023-04-28T01:06:03.124Z,6.64
2023-04-28T01:06:14.886Z,6.64
2023-04-28T01:06:25.604Z,6.64
2023-04-28T01:06:36.328Z,6.64
2023-04-28T01:06:48.586Z,6.65
2023-04-28T01:07:01.276Z,6.65
2023-04-28T01:07:11.976Z,6.68
2023-04-28T01:07:24.413Z,6.69
2023-04-28T01:07:36.323Z,6.68
2023-04-28T01:07:48.745Z,6.69
2023-04-28T01:07:59.439Z,6.68
2023-04-28T01:08:11.201Z,6.68
2023-04-28T01:08:21.966Z,6.68
2023-04-28T01:08:33.799Z,6.69
2023-04-28T01:08:46.778Z,6.68
2023-04-28T01:08:57.621Z,6.71
2023-04-28T01:09:09.349Z,6.71
2023-04-28T01:09:20.061Z,6.69
2023-04-28T01:09:30.794Z,6.71
2023-04-28T01:09:41.533Z,6.69
2023-04-28T01:09:52.300Z,6.71
2023-04-28T01:10:02.993Z,6.71
2023-04-28T01:10:15.500Z,6.72
2023-04-28T01:10:27.931Z,6.71
2023-04-28T01:10:39.605Z,6.72
2023-04-28T01:10:50.366Z,6.71
2023-04-28T01:11:02.077Z,6.72
2023-04-28T01:11:12.832Z,6.73
2023-04-28T01:11:23.547Z,6.72
2023-04-28T01:11:34.338Z,6.73
2023-04-28T01:11:48.112Z,6.73
2023-04-28T01:12:00.306Z,6.72
2023-04-28T01:12:11.997Z,6.73
2023-04-28T01:12:25.158Z,6.73
2023-04-28T01:12:35.839Z,6.73
2023-04-28T01:12:47.548Z,6.73
2023-04-28T01:13:00.443Z,6.73
2023-04-28T01:13:12.675Z,6.75
2023-04-28T01:13:24.581Z,6.75
2023-04-28T01:13:36.472Z,6.75
2023-04-28T01:13:47.201Z,6.75
2023-04-28T01:13:59.452Z,6.75
2023-04-28T01:14:11.868Z,6.75
2023-04-28T01:14:23.605Z,6.76
2023-04-28T01:14:34.317Z,6.76
2023-04-28T01:14:46.742Z,6.78
2023-04-28T01:14:57.555Z,6.78
2023-04-28T01:15:09.981Z,6.76
2023-04-28T01:15:20.700Z,6.76
2023-04-28T01:15:33.145Z,6.78
2023-04-28T01:15:45.827Z,6.78
2023-04-28T01:15:56.529Z,6.78
2023-04-28T01:16:09.012Z,6.76
2023-04-28T01:16:21.449Z,6.78
2023-04-28T01:16:32.224Z,6.76
2023-04-28T01:16:44.742Z,6.79
2023-04-28T01:16:57.700Z,6.76
2023-04-28T01:17:08.382Z,6.79
2023-04-28T01:17:20.569Z,6.78
2023-04-28T01:17:33.092Z,6.78
2023-04-28T01:17:45.563Z,6.76
2023-04-28T01:17:58.899Z,6.78
2023-04-28T01:18:11.665Z,6.78
2023-04-28T01:18:22.587Z,6.78
2023-04-28T01:18:34.844Z,6.76
2023-04-28T01:18:47.267Z,6.78
2023-04-28T01:18:59.953Z,6.78
2023-04-28T01:19:12.859Z,6.76
2023-04-28T01:19:23.646Z,6.78
2023-04-28T01:19:34.304Z,6.78
2023-04-28T01:19:46.754Z,6.78
2023-04-28T01:19:59.158Z,6.78
2023-04-28T01:20:11.580Z,6.78
2023-04-28T01:20:23.330Z,6.78
2023-04-28T01:20:35.024Z,6.76
2023-04-28T01:20:45.729Z,6.78
2023-04-28T01:20:57.911Z,6.78
2023-04-28T01:21:08.650Z,6.76
2023-04-28T01:21:21.128Z,6.76
2023-04-28T01:21:33.603Z,6.76
2023-04-28T01:21:44.302Z,6.78
2023-04-28T01:21:55.063Z,6.78
2023-04-28T01:22:08.027Z,6.79
2023-04-28T01:22:18.738Z,6.79
2023-04-28T01:22:31.210Z,6.79
2023-04-28T01:22:42.928Z,6.78
2023-04-28T01:22:55.165Z,6.79
2023-04-28T01:23:07.583Z,6.79
2023-04-28T01:23:20.283Z,6.79
2023-04-28T01:23:31.970Z,6.78
2023-04-28T01:23:42.730Z,6.81
2023-04-28T01:23:53.462Z,6.81
2023-04-28T01:24:04.251Z,6.79
2023-04-28T01:24:16.494Z,6.79
2023-04-28T01:24:29.126Z,6.81
2023-04-28T01:24:39.935Z,6.79
2023-04-28T01:24:52.312Z,6.82
2023-04-28T01:25:03.041Z,6.82
2023-04-28T01:25:14.679Z,6.82
2023-04-28T01:25:27.884Z,6.81
2023-04-28T01:25:40.319Z,6.79
2023-04-28T01:25:51.032Z,6.81
2023-04-28T01:26:02.796Z,6.81
2023-04-28T01:26:14.574Z,6.82
2023-04-28T01:26:27.039Z,6.81
2023-04-28T01:26:37.762Z,6.82
2023-04-28T01:26:49.653Z,6.81
2023-04-28T01:27:00.339Z,6.81
2023-04-28T01:27:13.524Z,6.82
2023-04-28T01:27:25.757Z,6.82
2023-04-28T01:27:37.402Z,6.81
2023-04-28T01:27:49.861Z,6.81
2023-04-28T01:28:03.114Z,6.82
2023-04-28T01:28:14.863Z,6.81
2023-04-28T01:28:27.286Z,6.83
2023-04-28T01:28:39.057Z,6.82
2023-04-28T01:28:49.762Z,6.81
2023-04-28T01:29:00.470Z,6.81
2023-04-28T01:29:13.083Z,6.82
2023-04-28T01:29:24.755Z,6.82
2023-04-28T01:29:35.522Z,6.82
2023-04-28T01:29:47.948Z,6.82
2023-04-28T01:30:00.456Z,6.83
2023-04-28T01:30:11.178Z,6.83
2023-04-28T01:30:24.201Z,6.83
2023-04-28T01:30:34.936Z,6.83
2023-04-28T01:30:47.124Z,6.83
2023-04-28T01:30:57.826Z,6.86
2023-04-28T01:31:08.563Z,6.86
2023-04-28T01:31:20.321Z,6.86
2023-04-28T01:31:31.294Z,6.86
2023-04-28T01:31:44.543Z,6.86
2023-04-28T01:31:56.446Z,6.86
2023-04-28T01:32:08.152Z,6.87
2023-04-28T01:32:18.884Z,6.87
2023-04-28T01:32:31.411Z,6.87
2023-04-28T01:32:43.880Z,6.89
2023-04-28T01:32:54.741Z,6.89
2023-04-28T01:33:07.971Z,6.89
2023-04-28T01:33:21.200Z,6.89
2023-04-28T01:33:33.918Z,6.87
2023-04-28T01:33:46.324Z,6.89
2023-04-28T01:33:58.615Z,6.89
2023-04-28T01:34:09.277Z,6.89
2023-04-28T01:34:20.039Z,6.89
2023-04-28T01:34:30.859Z,6.89
2023-04-28T01:34:41.647Z,6.89
2023-04-28T01:34:52.514Z,6.89
2023-04-28T01:35:04.952Z,6.87
2023-04-28T01:35:15.697Z,6.89
2023-04-28T01:35:27.633Z,6.89
2023-04-28T01:35:40.090Z,6.90
2023-04-28T01:35:51.745Z,6.89
2023-04-28T01:36:04.158Z,6.89
2023-04-28T01:36:14.850Z,6.89
2023-04-28T01:36:27.568Z,6.89
2023-04-28T01:36:38.324Z,6.89
2023-04-28T01:36:50.106Z,6.89
2023-04-28T01:37:01.819Z,6.89
2023-04-28T01:37:15.068Z,6.89
2023-04-28T01:37:27.402Z,6.89
2023-04-28T01:37:39.832Z,6.90
2023-04-28T01:37:50.538Z,6.89
2023-04-28T01:38:01.249Z,6.89
2023-04-28T01:38:13.541Z,6.89
2023-04-28T01:38:26.766Z,6.89
2023-04-28T01:38:39.200Z,6.89
2023-04-28T01:38:52.201Z,6.89
2023-04-28T01:39:02.920Z,6.89
2023-04-28T01:39:15.204Z,6.89
2023-04-28T01:39:25.894Z,6.89
2023-04-28T01:39:37.576Z,6.89
2023-04-28T01:39:49.298Z,6.89
2023-04-28T01:40:01.432Z,6.89
2023-04-28T01:40:13.846Z,6.89
2023-04-28T01:40:24.591Z,6.89
2023-04-28T01:40:35.295Z,6.89
2023-04-28T01:40:47.740Z,6.90
2023-04-28T01:40:58.459Z,6.89
2023-04-28T01:41:10.130Z,6.89
2023-04-28T01:41:23.297Z,6.89
2023-04-28T01:41:35.005Z,6.90
2023-04-28T01:41:45.706Z,6.90
2023-04-28T01:41:58.256Z,6.90
2023-04-28T01:42:09.968Z,6.89
2023-04-28T01:42:22.397Z,6.90
2023-04-28T01:42:34.139Z,6.90
2023-04-28T01:42:46.740Z,6.90
2023-04-28T01:42:57.449Z,6.90
2023-04-28T01:43:08.151Z,6.90
2023-04-28T01:43:18.869Z,6.90
2023-04-28T01:43:31.836Z,6.90
2023-04-28T01:43:44.741Z,6.90
2023-04-28T01:43:55.452Z,6.90
2023-04-28T01:44:07.151Z,6.90
2023-04-28T01:44:18.127Z,6.91
2023-04-28T01:44:29.030Z,6.91
2023-04-28T01:44:39.718Z,6.90
2023-04-28T01:44:52.653Z,6.91
2023-04-28T01:45:04.604Z,6.90
2023-04-28T01:45:16.758Z,6.90
2023-04-28T01:45:27.606Z,6.90
2023-04-28T01:45:40.311Z,6.91
2023-04-28T01:45:52.174Z,6.90
2023-04-28T01:46:02.917Z,6.91
2023-04-28T01:46:13.664Z,6.90
2023-04-28T01:46:25.510Z,6.91
2023-04-28T01:46:36.227Z,6.90
2023-04-28T01:46:46.942Z,6.93
2023-04-28T01:46:57.695Z,6.93
2023-04-28T01:47:09.877Z,6.93
2023-04-28T01:47:22.628Z,6.93
2023-04-28T01:47:34.956Z,6.93
2023-04-28T01:47:46.695Z,6.94
2023-04-28T01:47:59.127Z,6.94
2023-04-28T01:48:12.338Z,6.93
2023-04-28T01:48:25.540Z,6.94
2023-04-28T01:48:37.960Z,6.93
2023-04-28T01:48:48.731Z,6.96
2023-04-28T01:48:59.422Z,6.94
2023-04-28T01:49:13.690Z,6.96
2023-04-28T01:49:27.096Z,6.96
2023-04-28T01:49:37.830Z,6.96
2023-04-28T01:49:50.390Z,6.96
2023-04-28T01:50:01.063Z,6.96
2023-04-28T01:50:11.832Z,6.96
2023-04-28T01:50:24.026Z,6.96
2023-04-28T01:50:34.737Z,6.96
2023-04-28T01:50:47.289Z,6.96
2023-04-28T01:50:57.977Z,6.97
2023-04-28T01:51:10.186Z,6.97
2023-04-28T01:51:21.873Z,6.97
2023-04-28T01:51:33.574Z,6.97
2023-04-28T01:51:45.304Z,6.97
2023-04-28T01:51:56.353Z,6.97
2023-04-28T01:52:07.081Z,6.97
2023-04-28T01:52:18.803Z,6.99
2023-04-28T01:52:31.512Z,6.99
2023-04-28T01:52:43.960Z,6.97
2023-04-28T01:52:54.684Z,6.97
2023-04-28T01:53:05.402Z,6.99
2023-04-28T01:53:17.094Z,6.99
2023-04-28T01:53:29.079Z,6.99
2023-04-28T01:53:39.769Z,6.99
2023-04-28T01:53:50.479Z,6.99
2023-04-28T01:54:01.314Z,6.99
2023-04-28T01:54:13.213Z,7.00
2023-04-28T01:54:24.470Z,7.00
2023-04-28T01:54:37.001Z,7.00
2023-04-28T01:54:47.760Z,6.99
2023-04-28T01:54:59.510Z,7.00
2023-04-28T01:55:10.333Z,6.99
2023-04-28T01:55:21.089Z,7.00
2023-04-28T01:55:31.956Z,7.00
2023-04-28T01:55:43.642Z,6.99
2023-04-28T01:55:55.526Z,7.00
2023-04-28T01:56:06.301Z,7.00
2023-04-28T01:56:17.018Z,7.00
2023-04-28T01:56:29.697Z,7.00
2023-04-28T01:56:40.507Z,7.00
2023-04-28T01:56:51.168Z,7.01
2023-04-28T01:57:01.890Z,7.01
2023-04-28T01:57:15.523Z,7.01
2023-04-28T01:57:29.696Z,7.00
2023-04-28T01:57:40.577Z,7.01
2023-04-28T01:57:52.388Z,7.01
2023-04-28T01:58:04.150Z,7.01
2023-04-28T01:58:15.921Z,7.01
2023-04-28T01:58:28.885Z,7.01
2023-04-28T01:58:41.618Z,7.01
2023-04-28T01:58:52.317Z,7.01
2023-04-28T01:59:04.050Z,7.01
2023-04-28T01:59:15.841Z,7.01
2023-04-28T01:59:26.486Z,7.04
2023-04-28T01:59:38.222Z,7.01
2023-04-28T01:59:50.682Z,7.04
2023-04-28T02:00:03.168Z,7.04
2023-04-28T02:00:13.900Z,7.04
2023-04-28T02:00:26.336Z,7.01
2023-04-28T02:00:37.030Z,7.04
2023-04-28T02:00:50.225Z,7.04
2023-04-28T02:01:00.941Z,7.04
2023-04-28T02:01:12.698Z,7.04
2023-04-28T02:01:24.501Z,7.04
2023-04-28T02:01:36.243Z,7.05
2023-04-28T02:01:47.093Z,7.05
2023-04-28T02:01:59.277Z,7.05
2023-04-28T02:02:10.987Z,7.05
2023-04-28T02:02:21.759Z,7.04
2023-04-28T02:02:34.830Z,7.04
2023-04-28T02:02:45.611Z,7.05
2023-04-28T02:02:56.405Z,7.04
2023-04-28T02:03:08.387Z,7.05
2023-04-28T02:03:20.950Z,7.04
2023-04-28T02:03:33.587Z,7.04
2023-04-28T02:03:44.787Z,7.04
2023-04-28T02:03:55.868Z,7.04
2023-04-28T02:04:08.283Z,7.04
2023-04-28T02:04:19.201Z,7.04
2023-04-28T02:04:30.215Z,7.04
2023-04-28T02:04:41.960Z,7.05
2023-04-28T02:04:54.781Z,7.04
2023-04-28T02:05:05.596Z,7.04
2023-04-28T02:05:18.053Z,7.01
2023-04-28T02:05:29.542Z,7.04
2023-04-28T02:05:40.281Z,7.04
2023-04-28T02:05:50.977Z,7.05
2023-04-28T02:06:02.639Z,7.05
2023-04-28T02:06:16.315Z,7.04
2023-04-28T02:06:28.868Z,7.05
2023-04-28T02:06:41.370Z,7.05
2023-04-28T02:06:52.119Z,7.05
2023-04-28T02:07:04.020Z,7.05
2023-04-28T02:07:15.739Z,7.07
2023-04-28T02:07:28.914Z,7.07
2023-04-28T02:07:41.392Z,7.05
2023-04-28T02:07:53.059Z,7.07
2023-04-28T02:08:03.755Z,7.07
2023-04-28T02:08:16.425Z,7.07
2023-04-28T02:08:28.895Z,7.08
2023-04-28T02:08:42.093Z,7.07
2023-04-28T02:08:54.550Z,7.07
2023-04-28T02:09:06.965Z,7.07
2023-04-28T02:09:19.941Z,7.07
2023-04-28T02:09:31.616Z,7.07
2023-04-28T02:09:42.338Z,7.07
2023-04-28T02:09:55.289Z,7.09
2023-04-28T02:10:07.717Z,7.08
2023-04-28T02:10:21.412Z,7.08
2023-04-28T02:10:32.165Z,7.08
2023-04-28T02:10:45.359Z,7.08
2023-04-28T02:10:57.824Z,7.08
2023-04-28T02:11:10.203Z,7.09
2023-04-28T02:11:22.653Z,7.09
2023-04-28T02:11:33.359Z,7.09
2023-04-28T02:11:45.045Z,7.08
2023-04-28T02:11:56.772Z,7.09
2023-04-28T02:12:09.521Z,7.09
2023-04-28T02:12:22.672Z,7.09
2023-04-28T02:12:35.123Z,7.09
2023-04-28T02:12:45.860Z,7.09
2023-04-28T02:12:56.567Z,7.09
2023-04-28T02:13:09.026Z,7.09
2023-04-28T02:13:21.505Z,7.11
2023-04-28T02:13:32.230Z,7.09
2023-04-28T02:13:43.806Z,7.09
2023-04-28T02:13:55.566Z,7.09
2023-04-28T02:14:06.253Z,7.11
2023-04-28T02:14:19.189Z,7.11
2023-04-28T02:14:31.144Z,7.09
2023-04-28T02:14:43.545Z,7.09
2023-04-28T02:14:54.270Z,7.09
2023-04-28T02:15:05.961Z,7.09
2023-04-28T02:15:18.398Z,7.11
2023-04-28T02:15:30.836Z,7.11
2023-04-28T02:15:43.101Z,7.11
2023-04-28T02:15:56.343Z,7.11
2023-04-28T02:16:08.056Z,7.11
2023-04-28T02:16:20.313Z,7.12
2023-04-28T02:16:32.013Z,7.11
2023-04-28T02:16:42.734Z,7.11
2023-04-28T02:16:53.434Z,7.11
2023-04-28T02:17:06.525Z,7.11
2023-04-28T02:17:17.260Z,7.12
2023-04-28T02:17:28.005Z,7.12
2023-04-28T02:17:39.678Z,7.11
2023-04-28T02:17:51.447Z,7.12
2023-04-28T02:18:03.900Z,7.12
2023-04-28T02:18:14.599Z,7.12
2023-04-28T02:18:25.303Z,7.14
2023-04-28T02:18:36.010Z,7.14
2023-04-28T02:18:47.794Z,7.14
2023-04-28T02:19:00.755Z,7.15
2023-04-28T02:19:12.529Z,7.12
2023-04-28T02:19:23.221Z,7.14
2023-04-28T02:19:35.071Z,7.15
2023-04-28T02:19:45.883Z,7.14
2023-04-28T02:19:58.316Z,7.14
2023-04-28T02:20:09.045Z,7.15
2023-04-28T02:20:22.277Z,7.15
2023-04-28T02:20:33.357Z,7.15
2023-04-28T02:20:45.169Z,7.15
2023-04-28T02:20:56.875Z,7.14
2023-04-28T02:21:09.797Z,7.15
2023-04-28T02:21:22.255Z,7.16
2023-04-28T02:21:34.653Z,7.16
2023-04-28T02:21:47.849Z,7.16
2023-04-28T02:21:59.560Z,7.16
2023-04-28T02:22:11.256Z,7.16
2023-04-28T02:22:24.939Z,7.15
2023-04-28T02:22:36.597Z,7.16
2023-04-28T02:22:47.516Z,7.16
2023-04-28T02:22:59.954Z,7.16
2023-04-28T02:23:11.628Z,7.18
2023-04-28T02:23:24.653Z,7.18
2023-04-28T02:23:37.297Z,7.18
2023-04-28T02:23:49.501Z,7.18
2023-04-28T02:24:02.388Z,7.18
2023-04-28T02:24:15.805Z,7.18
2023-04-28T02:24:28.073Z,7.19
2023-04-28T02:24:39.784Z,7.19
2023-04-28T02:24:50.535Z,7.19
2023-04-28T02:25:01.248Z,7.19
2023-04-28T02:25:12.005Z,7.19
2023-04-28T02:25:24.212Z,7.19
2023-04-28T02:25:34.946Z,7.19
2023-04-28T02:25:45.647Z,7.19
2023-04-28T02:25:58.903Z,7.19
2023-04-28T02:26:09.588Z,7.19
2023-04-28T02:26:20.295Z,7.19
2023-04-28T02:26:32.698Z,7.21
2023-04-28T02:26:43.391Z,7.21
2023-04-28T02:26:54.102Z,7.19
2023-04-28T02:27:04.813Z,7.21
2023-04-28T02:27:17.175Z,7.19
2023-04-28T02:27:27.877Z,7.19
2023-04-28T02:27:41.123Z,7.21
2023-04-28T02:27:52.996Z,7.19
2023-04-28T02:28:03.702Z,7.21
2023-04-28T02:28:14.450Z,7.21
2023-04-28T02:28:25.125Z,7.21
2023-04-28T02:28:35.840Z,7.23
2023-04-28T02:28:49.689Z,7.21
2023-04-28T02:29:01.457Z,7.23
2023-04-28T02:29:12.135Z,7.23
2023-04-28T02:29:24.062Z,7.23
2023-04-28T02:29:35.809Z,7.23
2023-04-28T02:29:48.577Z,7.23
2023-04-28T02:30:00.529Z,7.23
2023-04-28T02:30:12.917Z,7.23
2023-04-28T02:30:23.641Z,7.23
2023-04-28T02:30:36.094Z,7.23
2023-04-28T02:30:48.082Z,7.21
2023-04-28T02:31:00.505Z,7.23
2023-04-28T02:31:11.223Z,7.23
2023-04-28T02:31:23.025Z,7.23
2023-04-28T02:31:34.770Z,7.24
2023-04-28T02:31:47.037Z,7.23
2023-04-28T02:31:57.861Z,7.24
2023-04-28T02:32:10.741Z,7.23
2023-04-28T02:32:22.478Z,7.23
2023-04-28T02:32:33.270Z,7.23
2023-04-28T02:32:44.047Z,7.24
2023-04-28T02:32:55.734Z,7.23
2023-04-28T02:33:07.709Z,7.24
2023-04-28T02:33:19.424Z,7.24
2023-04-28T02:33:31.889Z,7.24
2023-04-28T02:33:42.628Z,7.24
2023-04-28T02:33:55.836Z,7.24
2023-04-28T02:34:08.308Z,7.23
2023-04-28T02:34:20.494Z,7.24
2023-04-28T02:34:32.710Z,7.23
2023-04-28T02:34:45.104Z,7.24
2023-04-28T02:34:56.852Z,7.26
2023-04-28T02:35:09.291Z,7.24
2023-04-28T02:35:20.961Z,7.23
2023-04-28T02:35:31.685Z,7.24
2023-04-28T02:35:43.606Z,7.24
2023-04-28T02:35:55.531Z,7.24